createdAt,value
2023-09-02T00:01:07.671Z,101176.00
2023-09-02T00:06:09.324Z,101168.25
2023-09-02T00:11:11.376Z,101169.44
2023-09-02T00:16:13.057Z,101171.41
2023-09-02T00:21:14.534Z,101156.94
2023-09-02T00:26:16.201Z,101159.25
2023-09-02T00:31:17.701Z,101155.97
2023-09-02T00:36:19.417Z,101151.66
2023-09-02T00:41:30.410Z,101161.19
2023-09-02T00:46:32.310Z,101161.34
2023-09-02T00:51:33.863Z,101162.59
2023-09-02T00:56:37.149Z,101156.50
2023-09-02T01:01:41.500Z,101159.59
2023-09-02T01:06:43.050Z,101156.56
2023-09-02T01:11:44.535Z,101161.78
2023-09-02T01:16:46.219Z,101169.44
2023-09-02T01:22:07.230Z,101178.72
2023-09-02T01:27:20.577Z,101188.88
2023-09-02T01:32:24.195Z,101196.38
2023-09-02T01:37:26.896Z,101191.06
2023-09-02T01:42:28.871Z,101199.94
2023-09-02T01:47:31.821Z,101197.69
2023-09-02T01:52:34.573Z,101200.22
2023-09-02T01:57:36.616Z,101198.56
2023-09-02T02:02:39.016Z,101201.09
2023-09-02T02:07:49.077Z,101208.09
2023-09-02T02:12:51.916Z,101204.59
2023-09-02T02:17:53.499Z,101201.16
2023-09-02T02:22:54.974Z,101209.19
2023-09-02T02:27:56.651Z,101208.94
2023-09-02T02:32:58.209Z,101204.25
2023-09-02T02:38:00.453Z,101206.03
2023-09-02T02:43:01.984Z,101202.78
2023-09-02T02:48:03.795Z,101198.84
2023-09-02T02:53:05.436Z,101212.91
2023-09-02T02:58:07.092Z,101222.81
2023-09-02T03:03:08.901Z,101215.38
2023-09-02T03:08:11.131Z,101222.31
2023-09-02T03:13:12.646Z,101218.56
2023-09-02T03:18:14.536Z,101224.31
2023-09-02T03:23:16.473Z,101231.31
2023-09-02T03:28:18.082Z,101229.84
2023-09-02T03:33:19.877Z,101231.81
2023-09-02T03:38:21.697Z,101230.66
2023-09-02T03:43:23.767Z,101235.00
2023-09-02T03:48:25.437Z,101244.28
2023-09-02T03:53:27.169Z,101245.31
2023-09-02T03:58:29.730Z,101245.72
2023-09-02T04:03:33.915Z,101247.56
2023-09-02T04:08:35.830Z,101243.69
2023-09-02T04:13:37.774Z,101237.06
2023-09-02T04:18:39.452Z,101227.00
2023-09-02T04:23:41.102Z,101239.78
2023-09-02T04:28:42.678Z,101236.06
2023-09-02T04:33:44.207Z,101243.19
2023-09-02T04:38:46.231Z,101244.84
2023-09-02T04:43:47.986Z,101254.72
2023-09-02T04:48:49.609Z,101254.66
2023-09-02T04:53:51.228Z,101257.94
2023-09-02T04:58:52.769Z,101260.41
2023-09-02T05:03:54.296Z,101256.91
2023-09-02T05:08:56.141Z,101248.44
2023-09-02T05:13:57.831Z,101249.41
2023-09-02T05:18:59.692Z,101248.72
2023-09-02T05:24:01.317Z,101250.75
2023-09-02T05:29:03.095Z,101258.94
2023-09-02T05:34:04.581Z,101255.56
2023-09-02T05:39:06.166Z,101273.97
2023-09-02T05:44:07.739Z,101283.53
2023-09-02T05:49:11.422Z,101296.34
2023-09-02T05:54:16.370Z,101302.66
2023-09-02T06:04:43.392Z,101299.59
2023-09-02T06:09:51.146Z,101294.78
2023-09-02T06:15:01.572Z,101297.81
2023-09-02T06:20:03.291Z,101301.25
2023-09-02T06:25:05.260Z,101307.22
2023-09-02T06:30:07.379Z,101310.50
2023-09-02T06:35:14.657Z,101320.94
2023-09-02T06:40:19.270Z,101340.03
2023-09-02T06:45:21.037Z,101342.00
2023-09-02T06:50:26.934Z,101348.59
2023-09-02T06:55:30.609Z,101358.72
2023-09-02T07:00:34.738Z,101352.88
2023-09-02T07:05:36.326Z,101373.44
2023-09-02T07:10:37.945Z,101373.28
2023-09-02T07:15:39.557Z,101366.19
2023-09-02T07:20:41.080Z,101384.03
2023-09-02T07:25:51.620Z,101379.97
2023-09-02T07:30:57.956Z,101390.69
2023-09-02T07:36:01.873Z,101394.66
2023-09-02T07:41:03.692Z,101414.31
2023-09-02T07:46:05.394Z,101422.06
2023-09-02T07:51:07.352Z,101430.69
2023-09-02T07:56:56.044Z,101441.72
2023-09-02T08:01:59.130Z,101433.13
2023-09-02T08:07:00.965Z,101430.84
2023-09-02T08:12:02.760Z,101429.91
2023-09-02T08:17:12.196Z,101439.16
2023-09-02T08:22:16.738Z,101436.75
2023-09-02T08:27:18.474Z,101439.19
2023-09-02T08:32:24.375Z,101445.59
2023-09-02T08:37:27.504Z,101450.16
2023-09-02T08:42:30.752Z,101454.03
2023-09-02T08:47:35.381Z,101470.41
2023-09-02T08:52:42.611Z,101461.81
2023-09-02T08:57:45.797Z,101461.50
2023-09-02T09:02:47.828Z,101464.63
2023-09-02T09:07:50.220Z,101470.97
2023-09-02T09:12:53.780Z,101469.72
2023-09-02T09:18:04.278Z,101472.16
2023-09-02T09:23:53.364Z,101469.06
2023-09-02T09:29:25.847Z,101453.09
2023-09-02T09:34:41.876Z,101453.19
2023-09-02T09:39:44.448Z,101462.34
2023-09-02T09:45:07.741Z,101455.97
2023-09-02T09:50:20.168Z,101454.53
2023-09-02T10:01:04.337Z,101452.00
2023-09-02T10:07:20.533Z,101451.63
2023-09-02T10:18:02.668Z,101484.41
2023-09-02T10:23:11.283Z,101483.44
2023-09-02T10:28:20.969Z,101489.56
2023-09-02T10:39:09.241Z,101490.59
2023-09-02T10:45:26.019Z,101487.28
2023-09-02T10:50:19.018Z,101489.69
2023-09-02T10:55:28.053Z,101488.97
2023-09-02T11:00:49.312Z,101474.56
2023-09-02T11:06:09.934Z,101478.56
2023-09-02T11:11:12.284Z,101482.84
2023-09-02T11:16:34.798Z,101469.53
2023-09-02T11:21:50.102Z,101482.53
2023-09-02T11:38:50.154Z,101496.53
2023-09-02T11:43:57.268Z,101489.19
2023-09-02T11:49:02.733Z,101495.97
2023-09-02T11:54:24.754Z,101495.44
2023-09-02T12:05:13.762Z,101498.81
2023-09-02T12:10:18.118Z,101508.00
2023-09-02T12:15:23.530Z,101510.16
2023-09-02T12:20:25.691Z,101512.09
2023-09-02T12:25:27.406Z,101513.34
2023-09-02T12:30:31.121Z,101503.06
2023-09-02T12:35:33.928Z,101506.03
2023-09-02T12:40:38.040Z,101508.25
2023-09-02T12:45:39.790Z,101520.50
2023-09-02T12:50:41.854Z,101525.13
2023-09-02T12:55:45.026Z,101521.63
2023-09-02T13:00:49.137Z,101518.59
2023-09-02T13:05:53.446Z,101518.66
2023-09-02T13:10:56.530Z,101515.97
2023-09-02T13:16:00.890Z,101515.13
2023-09-02T13:21:02.740Z,101524.69
2023-09-02T13:26:16.542Z,101518.06
2023-09-02T13:31:21.548Z,101519.78
2023-09-02T13:36:23.267Z,101517.91
2023-09-02T13:41:25.909Z,101526.56
2023-09-02T13:46:35.031Z,101517.72
2023-09-02T13:51:37.152Z,101530.25
2023-09-02T13:56:55.466Z,101529.69
2023-09-02T14:02:06.079Z,101539.06
2023-09-02T14:07:07.915Z,101539.53
2023-09-02T14:12:34.596Z,101549.03
2023-09-02T14:17:36.114Z,101553.41
2023-09-02T14:22:37.665Z,101549.00
2023-09-02T14:27:39.495Z,101556.66
2023-09-02T14:32:41.081Z,101554.19
2023-09-02T14:37:42.771Z,101554.72
2023-09-02T14:42:47.357Z,101547.91
2023-09-02T14:47:52.250Z,101532.16
2023-09-02T14:52:57.101Z,101532.78
2023-09-02T14:58:01.467Z,101544.81
2023-09-02T15:03:10.897Z,101540.06
2023-09-02T15:08:14.872Z,101544.00
2023-09-02T15:13:18.263Z,101530.81
2023-09-02T15:18:27.663Z,101532.56
2023-09-02T15:23:31.621Z,101533.03
2023-09-02T15:28:33.285Z,101529.00
2023-09-02T15:33:35.081Z,101526.25
2023-09-02T15:38:39.877Z,101524.47
2023-09-02T15:43:41.539Z,101525.34
2023-09-02T15:59:17.187Z,101515.22
2023-09-02T16:04:22.109Z,101520.56
2023-09-02T16:09:25.263Z,101521.06
2023-09-02T16:14:37.130Z,101532.19
2023-09-02T16:19:38.774Z,101537.81
2023-09-02T16:29:51.657Z,101531.88
2023-09-02T16:34:53.206Z,101544.09
2023-09-02T16:39:56.524Z,101559.94
2023-09-02T16:45:03.718Z,101562.19
2023-09-02T16:50:07.523Z,101562.69
2023-09-02T16:55:15.633Z,101566.84
2023-09-02T17:00:19.617Z,101566.22
2023-09-02T17:05:22.906Z,101559.88
2023-09-02T17:10:37.683Z,101564.88
2023-09-02T17:15:54.395Z,101567.56
2023-09-02T17:21:12.855Z,101562.16
2023-09-02T17:26:20.752Z,101571.91
2023-09-02T17:31:24.832Z,101569.66
2023-09-02T17:54:26.925Z,101578.13
2023-09-02T18:05:33.733Z,101592.97
2023-09-02T18:10:50.684Z,101598.16
2023-09-02T18:27:00.561Z,101639.25
2023-09-02T18:38:29.467Z,101663.06
2023-09-02T18:43:45.416Z,101669.00
2023-09-02T18:48:51.352Z,101680.88
2023-09-02T18:59:11.946Z,101691.72
2023-09-02T19:04:13.635Z,101695.53
2023-09-02T19:09:15.154Z,101702.00
2023-09-02T19:14:16.702Z,101711.72
2023-09-02T19:19:18.305Z,101709.50
2023-09-02T19:24:20.149Z,101710.50
2023-09-02T19:29:21.741Z,101716.88
2023-09-02T19:34:23.384Z,101722.81
2023-09-02T19:39:25.126Z,101717.81
2023-09-02T19:44:31.922Z,101715.59
2023-09-02T19:49:33.698Z,101729.91
2023-09-02T19:54:35.247Z,101743.94
2023-09-02T19:59:36.973Z,101743.97
2023-09-02T20:04:38.798Z,101744.97
2023-09-02T20:09:40.805Z,101752.03
2023-09-02T20:14:42.327Z,101757.63
2023-09-02T20:19:43.871Z,101757.91
2023-09-02T20:24:45.361Z,101766.09
2023-09-02T20:29:47.047Z,101768.50
2023-09-02T20:34:48.772Z,101772.19
2023-09-02T20:39:50.344Z,101778.41
2023-09-02T20:44:52.004Z,101788.94
2023-09-02T20:49:53.930Z,101792.72
2023-09-02T20:54:56.074Z,101809.56
2023-09-02T20:59:58.573Z,101797.81
2023-09-02T21:05:00.301Z,101795.41
2023-09-02T21:10:01.920Z,101793.19
2023-09-02T21:15:03.826Z,101805.50
2023-09-02T21:20:06.876Z,101813.84
2023-09-02T21:25:10.122Z,101813.84
2023-09-02T21:30:12.032Z,101816.25
2023-09-02T21:35:13.839Z,101828.78
2023-09-02T21:40:15.370Z,101833.69
2023-09-02T21:45:18.784Z,101834.34
2023-09-02T21:50:20.413Z,101833.16
2023-09-02T21:55:22.104Z,101837.84
2023-09-02T22:00:23.721Z,101835.16
2023-09-02T22:05:25.305Z,101842.78
2023-09-02T22:10:26.957Z,101835.97
2023-09-02T22:15:28.461Z,101838.56
2023-09-02T22:20:30.108Z,101847.13
2023-09-02T22:25:31.616Z,101844.69
2023-09-02T22:30:33.302Z,101845.50
2023-09-02T22:35:34.934Z,101839.16
2023-09-02T22:40:36.659Z,101843.72
2023-09-02T22:45:38.613Z,101837.28
2023-09-02T22:50:40.549Z,101845.81
2023-09-02T22:55:42.452Z,101848.25
2023-09-02T23:00:44.412Z,101857.50
2023-09-02T23:05:45.986Z,101870.84
2023-09-02T23:10:47.446Z,101883.88
2023-09-02T23:15:48.936Z,101891.38
2023-09-02T23:20:50.468Z,101899.47
2023-09-02T23:25:52.824Z,101904.75
2023-09-02T23:30:58.654Z,101899.31
2023-09-02T23:36:00.369Z,101899.44
2023-09-02T23:41:02.843Z,101895.69
2023-09-02T23:46:04.564Z,101893.09
2023-09-02T23:51:06.230Z,101902.22
2023-09-02T23:56:07.707Z,101889.38
